Time;durP1;ratioP1;P1;durP2;ratioP2;P2;SDS_P1;SDS_P2;PMS_P1;PMS_P2;Temp;Humidity;BMP_temperature;BMP_pressure;BME280_temperature;BME280_humidity;BME280_pressure;Samples;Min_cycle;Max_cycle;Signal;HPM_P1;HPM_P2
2024/01/13 00:02:15;;;;;;;4.50;2.40;;;;;;;-10.03;89.11;100269.56;5041815;28;20056;-61
2024/01/13 00:04:47;;;;;;;4.45;2.47;;;;;;;-10.38;88.76;100210.78;5033883;28;20059;-60
2024/01/13 00:07:18;;;;;;;4.97;2.60;;;;;;;-10.00;88.87;100264.69;5041474;28;20044;-61
2024/01/13 00:09:48;;;;;;;4.28;2.30;;;;;;;-9.94;88.57;100260.81;5019571;28;20044;-61
2024/01/13 00:12:18;;;;;;;5.10;2.55;;;;;;;-9.88;88.11;100266.25;5045190;28;20131;-60
2024/01/13 00:14:49;;;;;;;4.32;2.63;;;;;;;-9.88;87.69;100276.34;5033783;28;20059;-60
2024/01/13 00:17:20;;;;;;;3.10;2.47;;;;;;;-9.87;87.02;100288.25;5043410;28;20048;-62
2024/01/13 00:19:52;;;;;;;2.33;2.13;;;;;;;-9.75;87.02;100283.97;5033463;28;20135;-60
2024/01/13 00:22:23;;;;;;;5.38;2.15;;;;;;;-9.80;86.50;100270.16;5043489;28;20135;-59
2024/01/13 00:24:53;;;;;;;2.00;1.90;;;;;;;-9.70;85.91;100280.09;5032911;28;20044;-60
2024/01/13 00:27:24;;;;;;;3.03;2.60;;;;;;;-9.68;85.04;100278.53;5043259;28;20059;-63
2024/01/13 00:29:54;;;;;;;4.03;2.60;;;;;;;-9.62;85.04;100283.97;5013995;28;20049;-59
2024/01/13 00:32:24;;;;;;;2.50;2.30;;;;;;;-9.46;84.80;100282.44;5024091;28;20049;-61
2024/01/13 00:34:56;;;;;;;5.40;2.47;;;;;;;-9.38;84.88;100281.28;4999065;28;20115;-60
2024/01/13 00:37:27;;;;;;;6.47;2.53;;;;;;;-9.33;84.18;100284.97;5015042;28;20055;-62
2024/01/13 00:39:57;;;;;;;2.78;2.45;;;;;;;-9.23;83.83;100287.28;5013815;28;20155;-62
2024/01/13 00:42:28;;;;;;;3.38;2.55;;;;;;;-9.17;83.70;100292.72;5020836;28;20061;-61
2024/01/13 00:44:58;;;;;;;4.40;2.50;;;;;;;-9.18;82.92;100283.41;4995356;28;20057;-61
2024/01/13 00:47:29;;;;;;;2.88;2.13;;;;;;;-9.20;82.11;100279.03;5023065;28;20053;-62
2024/01/13 00:50:01;;;;;;;6.43;2.50;;;;;;;-9.15;81.28;100291.19;5012743;28;20139;-62
2024/01/13 00:52:31;;;;;;;4.47;2.35;;;;;;;-9.05;81.36;100287.56;5023540;28;20065;-60
2024/01/13 00:55:02;;;;;;;5.85;2.15;;;;;;;-9.02;80.04;100286.88;5013296;28;20069;-62
2024/01/13 00:57:32;;;;;;;2.97;2.42;;;;;;;-8.95;80.14;100283.94;5023335;28;20076;-60
2024/01/13 01:00:03;;;;;;;5.93;2.53;;;;;;;-8.65;80.40;100289.13;5013747;28;20136;-63
2024/01/13 01:02:33;;;;;;;3.10;2.38;;;;;;;-8.55;79.24;100291.44;5023540;28;20048;-62
2024/01/13 01:05:06;;;;;;;3.05;2.60;;;;;;;-8.48;78.64;100283.41;5012738;28;20087;-58
2024/01/13 01:07:37;;;;;;;4.30;2.30;;;;;;;-8.48;77.55;100276.69;5022873;28;20164;-59
2024/01/13 01:10:08;;;;;;;2.20;2.00;;;;;;;-8.53;75.97;100289.88;5012361;28;20053;-60
2024/01/13 01:12:38;;;;;;;3.75;2.25;;;;;;;-8.57;75.73;100288.78;5016863;28;20551;-60
2024/01/13 01:15:09;;;;;;;4.13;2.60;;;;;;;-8.47;75.78;100285.16;5022902;28;20045;-60
2024/01/13 01:17:40;;;;;;;4.20;2.10;;;;;;;-8.50;75.50;100277.38;4994271;28;20070;-60
2024/01/13 01:20:13;;;;;;;2.58;2.30;;;;;;;-8.54;74.25;100288.97;5019933;28;20056;-60
2024/01/13 01:22:43;;;;;;;3.58;2.72;;;;;;;-8.62;74.27;100284.25;5015317;28;20041;-59
2024/01/13 01:25:14;;;;;;;2.15;1.95;;;;;;;-8.39;74.82;100281.38;5018502;28;20115;-60
2024/01/13 01:27:44;;;;;;;3.53;2.10;;;;;;;-8.12;73.64;100291.41;5004759;28;20267;-59
2024/01/13 01:30:15;;;;;;;4.10;2.03;;;;;;;-7.98;73.18;100287.13;5046139;28;20080;-61
2024/01/13 01:32:45;;;;;;;2.20;2.00;;;;;;;-8.09;72.45;100284.81;5036541;28;20067;-58
2024/01/13 01:35:18;;;;;;;2.92;2.10;;;;;;;-8.25;71.36;100283.06;5046343;28;20087;-58
2024/01/13 01:37:48;;;;;;;4.63;2.50;;;;;;;-8.30;72.24;100281.06;5033297;28;20084;-58
2024/01/13 01:40:20;;;;;;;3.83;2.38;;;;;;;-8.22;73.18;100276.44;5022114;28;20747;-59
2024/01/13 01:42:51;;;;;;;3.67;2.20;;;;;;;-8.16;72.71;100286.91;5002622;28;20654;-60
2024/01/13 01:45:21;;;;;;;2.92;2.20;;;;;;;-8.21;72.27;100283.25;5010378;28;20132;-60
2024/01/13 01:47:54;;;;;;;2.90;2.40;;;;;;;-8.33;71.95;100283.41;5027983;28;20066;-58
2024/01/13 01:50:26;;;;;;;2.88;2.40;;;;;;;-8.31;72.08;100287.78;5028276;28;20053;-60
2024/01/13 01:52:57;;;;;;;3.40;2.17;;;;;;;-8.17;72.06;100287.72;5023686;28;21650;-60
2024/01/13 01:55:27;;;;;;;5.00;2.30;;;;;;;-8.14;71.46;100280.28;5035807;28;20048;-59
2024/01/13 01:58:00;;;;;;;2.38;2.17;;;;;;;-8.13;71.73;100292.19;5021234;28;20054;-60
2024/01/13 02:00:31;;;;;;;3.47;2.08;;;;;;;-8.13;71.30;100276.97;5036957;28;20049;-59
2024/01/13 02:03:01;;;;;;;4.18;1.98;;;;;;;-8.07;70.80;100288.34;5031630;28;20389;-59
2024/01/13 02:05:34;;;;;;;2.50;2.00;;;;;;;-8.07;70.39;100285.78;5044273;28;20047;-59
2024/01/13 02:08:06;;;;;;;4.22;2.17;;;;;;;-8.10;70.28;100283.09;5035507;28;20117;-60
2024/01/13 02:10:41;;;;;;;2.10;1.90;;;;;;;-8.04;70.26;100282.56;5035683;28;20561;-59
2024/01/13 02:13:11;;;;;;;2.50;1.90;;;;;;;-8.13;69.49;100276.97;5045762;28;20052;-59
2024/01/13 02:15:42;;;;;;;2.22;2.03;;;;;;;-8.30;69.98;100264.19;5035359;28;20072;-61
2024/01/13 02:18:12;;;;;;;2.30;2.00;;;;;;;-8.45;70.50;100237.09;5045615;28;20145;-59
2024/01/13 02:21:01;;;;;;;2.63;2.10;;;;;;;-8.08;70.87;100266.31;5035579;28;20291;-59
2024/01/13 02:23:34;;;;;;;2.88;2.08;;;;;;;-8.04;71.10;100267.34;5045536;28;20045;-58
2024/01/13 02:26:05;;;;;;;3.95;2.20;;;;;;;-7.91;70.54;100269.81;5035035;28;20052;-60
2024/01/13 02:28:36;;;;;;;4.07;3.17;;;;;;;-7.86;70.60;100268.44;5045138;28;20044;-60
2024/01/13 02:31:16;;;;;;;2.83;2.35;;;;;;;-7.96;70.03;100271.22;5035252;28;20048;-61
2024/01/13 02:33:52;;;;;;;2.17;1.98;;;;;;;-7.86;69.79;100272.63;5034547;28;20044;-62
2024/01/13 02:36:24;;;;;;;3.25;2.15;;;;;;;-7.86;69.55;100268.44;5045356;28;20048;-60
2024/01/13 02:38:56;;;;;;;3.15;2.20;;;;;;;-7.65;70.39;100267.88;5025335;28;20144;-60
2024/01/13 02:41:27;;;;;;;3.88;2.20;;;;;;;-7.66;68.92;100276.25;5024551;28;20802;-60
2024/01/13 02:43:57;;;;;;;5.47;2.92;;;;;;;-7.66;69.24;100281.34;5008007;28;20112;-59
2024/01/13 02:46:28;;;;;;;3.72;2.00;;;;;;;-7.70;69.27;100270.16;5026250;28;20110;-59
2024/01/13 02:49:00;;;;;;;6.05;2.50;;;;;;;-7.82;69.95;100274.53;5030098;28;20046;-59
2024/01/13 02:51:31;;;;;;;2.20;2.00;;;;;;;-7.93;69.79;100271.41;5055387;28;20049;-59
2024/01/13 02:54:03;;;;;;;2.85;2.00;;;;;;;-8.15;69.84;100263.34;5041839;28;20052;-60
2024/01/13 02:56:34;;;;;;;3.97;1.95;;;;;;;-8.27;70.62;100264.34;5053563;28;20473;-60
2024/01/13 02:59:04;;;;;;;4.68;2.22;;;;;;;-8.31;70.53;100267.50;5043454;28;20047;-60
2024/01/13 03:01:36;;;;;;;5.93;2.40;;;;;;;-8.43;70.61;100256.69;5054086;28;20147;-58
2024/01/13 03:04:06;;;;;;;4.13;2.20;;;;;;;-8.44;71.02;100269.25;5043392;28;20048;-60
2024/01/13 03:06:37;;;;;;;4.30;2.38;;;;;;;-8.41;71.51;100264.34;5050301;28;20049;-62
2024/01/13 03:09:09;;;;;;;6.43;2.38;;;;;;;-8.34;71.52;100267.31;5031901;28;20429;-59
2024/01/13 03:11:39;;;;;;;3.70;2.15;;;;;;;-8.42;71.23;100258.44;5033269;28;20109;-59
2024/01/13 03:14:10;;;;;;;4.22;2.22;;;;;;;-8.36;71.42;100257.88;5052386;28;20044;-62
2024/01/13 03:16:40;;;;;;;2.63;2.15;;;;;;;-8.31;71.59;100257.38;5033267;28;20048;-59
2024/01/13 03:19:10;;;;;;;5.25;2.25;;;;;;;-8.10;71.95;100241.66;5045914;28;20055;-61
2024/01/13 03:21:40;;;;;;;4.72;2.30;;;;;;;-7.75;71.96;100255.47;5032868;28;20044;-60
2024/01/13 03:24:12;;;;;;;4.25;1.90;;;;;;;-7.63;70.40;100251.09;5052489;28;20048;-59
2024/01/13 03:26:43;;;;;;;2.42;1.83;;;;;;;-7.51;70.94;100241.63;5043174;28;20481;-62
2024/01/13 03:29:13;;;;;;;3.20;2.08;;;;;;;-7.33;69.25;100251.91;5053980;28;20113;-60
2024/01/13 03:31:43;;;;;;;2.53;2.10;;;;;;;-7.28;68.64;100249.63;5045970;28;20513;-60
2024/01/13 03:34:14;;;;;;;3.80;2.15;;;;;;;-7.40;68.24;100255.75;5057418;28;20613;-61
2024/01/13 03:36:44;;;;;;;2.35;1.80;;;;;;;-7.44;68.79;100255.50;5046385;28;20320;-61
2024/01/13 03:39:16;;;;;;;2.35;1.77;;;;;;;-7.49;68.70;100260.31;5049295;28;20052;-59
2024/01/13 03:41:49;;;;;;;5.60;2.67;;;;;;;-7.86;70.97;100253.22;5034056;28;20057;-60
2024/01/13 03:44:19;;;;;;;5.18;2.30;;;;;;;-7.97;71.65;100254.25;5044606;28;20048;-58
2024/01/13 03:46:50;;;;;;;4.80;2.08;;;;;;;-7.99;71.90;100253.28;5033137;28;20060;-59
2024/01/13 03:49:20;;;;;;;2.80;2.20;;;;;;;-8.01;72.03;100252.34;5041775;28;20135;-58
2024/01/13 03:51:51;;;;;;;3.63;2.20;;;;;;;-8.28;72.51;100211.06;5034328;28;20060;-60
2024/01/13 03:54:23;;;;;;;2.35;2.15;;;;;;;-7.88;72.15;100252.25;5044288;28;20051;-60
2024/01/13 03:56:54;;;;;;;4.32;2.53;;;;;;;-7.90;71.89;100251.28;5034282;28;20527;-57
2024/01/13 03:59:24;;;;;;;4.18;2.08;;;;;;;-7.89;70.44;100252.13;5044843;28;20048;-58
2024/01/13 04:01:54;;;;;;;4.40;2.80;;;;;;;-7.86;70.67;100253.22;5034893;28;20048;-61
2024/01/13 04:04:25;;;;;;;3.42;2.20;;;;;;;-7.88;71.37;100247.16;5044888;28;20161;-57
2024/01/13 04:06:56;;;;;;;3.95;2.88;;;;;;;-7.89;71.84;100247.94;5034744;28;20226;-60
2024/01/13 04:09:28;;;;;;;4.35;2.55;;;;;;;-7.81;71.79;100246.72;5044844;28;20048;-59
2024/01/13 04:11:58;;;;;;;3.60;2.05;;;;;;;-7.83;70.71;100253.38;5032218;28;20088;-59
2024/01/13 04:14:29;;;;;;;2.22;2.03;;;;;;;-7.99;70.58;100250.75;5042970;28;20048;-58
2024/01/13 04:17:09;;;;;;;3.50;2.50;;;;;;;-8.11;71.17;100250.03;5038486;27;20365;-59
2024/01/13 04:19:39;;;;;;;3.60;2.45;;;;;;;-8.15;70.70;100255.72;5020828;28;20049;-59
2024/01/13 04:22:10;;;;;;;4.75;2.10;;;;;;;-8.20;70.64;100237.72;5042027;28;20044;-59
2024/01/13 04:24:40;;;;;;;4.47;2.42;;;;;;;-8.24;70.37;100248.44;5032389;28;20049;-60
2024/01/13 04:27:11;;;;;;;3.90;2.20;;;;;;;-8.27;69.61;100253.34;5042387;28;20160;-59
2024/01/13 04:29:41;;;;;;;3.72;2.17;;;;;;;-8.55;69.67;100261.03;5032548;28;20136;-59
2024/01/13 04:32:13;;;;;;;2.28;1.88;;;;;;;-8.79;69.57;100268.88;5042180;28;20059;-59
2024/01/13 04:34:44;;;;;;;4.25;2.50;;;;;;;-8.93;69.57;100264.66;5031310;28;20144;-61
2024/01/13 04:37:15;;;;;;;3.65;2.28;;;;;;;-9.00;70.07;100265.06;5041764;28;20136;-60
2024/01/13 04:39:45;;;;;;;3.38;2.30;;;;;;;-9.12;69.57;100266.03;5014662;28;20570;-57
2024/01/13 04:42:15;;;;;;;3.63;2.15;;;;;;;-9.17;69.34;100277.53;5021576;28;20547;-60
2024/01/13 04:44:46;;;;;;;3.50;2.20;;;;;;;-9.10;69.42;100278.81;5030537;28;20057;-58
2024/01/13 04:47:18;;;;;;;4.10;2.08;;;;;;;-8.95;69.29;100273.81;5049531;28;20055;-59
2024/01/13 04:49:49;;;;;;;10.77;2.33;;;;;;;-8.92;69.26;100244.47;5041595;28;20060;-59
2024/01/13 04:52:19;;;;;;;3.85;2.60;;;;;;;-8.57;69.08;100280.31;5048227;28;20075;-60
2024/01/13 04:54:50;;;;;;;5.35;2.60;;;;;;;-8.55;69.12;100266.09;5036702;28;20179;-59
2024/01/13 04:57:20;;;;;;;3.80;2.60;;;;;;;-8.58;68.10;100281.13;5027115;28;20049;-60
2024/01/13 04:59:51;;;;;;;5.82;2.28;;;;;;;-8.69;68.51;100281.31;5030530;28;20040;-59
2024/01/13 05:02:23;;;;;;;5.78;2.40;;;;;;;-8.86;68.14;100284.53;5037811;28;20090;-59
2024/01/13 05:04:53;;;;;;;3.58;2.22;;;;;;;-8.97;68.34;100280.44;5019660;28;20060;-59
2024/01/13 05:07:23;;;;;;;3.05;2.30;;;;;;;-9.04;68.24;100293.50;5015502;28;20879;-58
2024/01/13 05:09:54;;;;;;;4.35;2.38;;;;;;;-9.19;68.16;100304.41;5024215;28;20064;-58
2024/01/13 05:12:24;;;;;;;7.40;2.85;;;;;;;-9.28;68.19;100288.66;5032096;28;20876;-60
2024/01/13 05:14:55;;;;;;;2.50;2.30;;;;;;;-9.19;68.29;100303.53;5025112;28;20052;-63
2024/01/13 05:17:27;;;;;;;5.60;2.50;;;;;;;-9.22;68.14;100309.28;5037441;28;20098;-63
2024/01/13 05:19:57;;;;;;;3.47;2.50;;;;;;;-9.34;68.05;100309.38;5027572;28;20144;-61
2024/01/13 05:22:28;;;;;;;2.65;2.40;;;;;;;-9.35;68.35;100301.69;5035706;28;20052;-61
2024/01/13 05:25:00;;;;;;;3.67;2.30;;;;;;;-9.52;67.89;100297.22;5025708;28;20060;-62
2024/01/13 05:27:30;;;;;;;3.40;2.13;;;;;;;-9.66;67.85;100309.88;5027804;28;20422;-63
2024/01/13 05:30:01;;;;;;;3.33;2.53;;;;;;;-9.70;68.00;100312.97;5011402;28;20110;-60
2024/01/13 05:32:33;;;;;;;5.43;2.50;;;;;;;-9.87;67.75;100318.59;5022510;28;20075;-63
2024/01/13 05:35:03;;;;;;;5.60;2.60;;;;;;;-10.13;67.85;100320.28;5012776;28;20055;-63
2024/01/13 05:37:34;;;;;;;3.47;2.25;;;;;;;-10.75;68.05;100258.84;5020756;28;20091;-64
2024/01/13 05:40:05;;;;;;;4.05;2.50;;;;;;;-10.46;68.33;100329.91;5012959;28;20072;-61
2024/01/13 05:42:36;;;;;;;4.47;2.72;;;;;;;-10.58;68.68;100334.09;5022587;28;20037;-60
2024/01/13 05:45:08;;;;;;;2.45;2.20;;;;;;;-10.72;67.98;100340.72;5018655;28;20132;-61
2024/01/13 05:47:40;;;;;;;3.00;2.10;;;;;;;-10.89;67.08;100336.16;4997360;28;20064;-60
2024/01/13 05:50:11;;;;;;;5.22;2.55;;;;;;;-11.06;66.63;100342.53;5026955;28;20049;-61
2024/01/13 05:52:41;;;;;;;4.25;2.30;;;;;;;-11.17;66.12;100338.38;5009544;28;20061;-63
2024/01/13 05:55:12;;;;;;;3.05;2.40;;;;;;;-11.16;66.23;100346.03;5019424;28;20049;-61
2024/01/13 05:57:42;;;;;;;2.50;2.15;;;;;;;-11.10;67.25;100345.63;5011929;28;20102;-61
2024/01/13 06:00:13;;;;;;;4.18;2.63;;;;;;;-11.06;67.96;100347.56;5020394;28;20997;-60
2024/01/13 06:02:45;;;;;;;5.38;3.20;;;;;;;-11.04;67.73;100346.03;5012116;28;20562;-62
2024/01/13 06:05:16;;;;;;;4.47;2.70;;;;;;;-10.95;67.62;100366.88;5026299;28;20076;-63
2024/01/13 06:07:47;;;;;;;7.53;3.53;;;;;;;-10.92;68.04;100362.03;5011840;28;20072;-61
2024/01/13 06:10:18;;;;;;;17.35;4.30;;;;;;;-10.98;67.77;100376.78;5021781;28;20419;-62
2024/01/13 06:12:48;;;;;;;3.78;3.30;;;;;;;-11.04;68.08;100375.44;5011687;28;20049;-60
2024/01/13 06:15:19;;;;;;;7.32;2.60;;;;;;;-11.21;67.72;100372.59;5021883;28;20059;-63
2024/01/13 06:17:51;;;;;;;2.55;2.30;;;;;;;-11.32;67.77;100369.31;5010951;28;20053;-61
2024/01/13 06:20:22;;;;;;;9.38;3.15;;;;;;;-11.35;67.98;100389.28;5022806;28;20499;-63
2024/01/13 06:22:52;;;;;;;5.93;3.15;;;;;;;-11.40;67.58;100383.03;5012480;28;20138;-62
2024/01/13 06:25:22;;;;;;;2.60;2.03;;;;;;;-11.48;66.90;100404.28;5021468;28;20048;-63
2024/01/13 06:27:53;;;;;;;4.15;2.28;;;;;;;-11.55;66.93;100409.66;5011181;28;20051;-64
2024/01/13 06:30:23;;;;;;;3.10;2.50;;;;;;;-11.67;67.16;100401.19;5021170;28;20072;-60
2024/01/13 06:32:55;;;;;;;2.90;2.70;;;;;;;-11.74;67.39;100413.31;5011655;28;20053;-60
2024/01/13 06:35:26;;;;;;;3.00;2.70;;;;;;;-11.86;67.26;100411.56;5021617;28;20072;-62
2024/01/13 06:37:56;;;;;;;5.13;2.83;;;;;;;-12.00;67.12;100424.00;5010251;28;20076;-63
2024/01/13 06:40:27;;;;;;;4.07;2.70;;;;;;;-12.12;67.58;100427.25;5020538;28;20061;-63
2024/01/13 06:42:57;;;;;;;3.70;2.60;;;;;;;-12.30;67.40;100422.56;5013297;28;20062;-63
2024/01/13 06:45:28;;;;;;;3.63;2.70;;;;;;;-12.41;67.77;100423.34;5023364;28;20138;-61
2024/01/13 06:48:00;;;;;;;6.47;2.90;;;;;;;-12.52;67.49;100434.25;5011763;28;21215;-63
2024/01/13 06:50:33;;;;;;;8.05;3.83;;;;;;;-12.56;67.84;100447.34;5022744;28;20560;-61
2024/01/13 06:53:16;;;;;;;2.95;2.60;;;;;;;-12.61;68.38;100432.75;5018019;28;20147;-63
2024/01/13 06:55:46;;;;;;;3.15;2.58;;;;;;;-12.60;69.01;100426.97;5011414;28;20160;-60
2024/01/13 06:58:19;;;;;;;6.25;3.05;;;;;;;-12.66;69.33;100426.50;5020970;28;20143;-63
2024/01/13 07:00:49;;;;;;;3.33;2.80;;;;;;;-12.84;69.22;100415.00;5013893;28;20092;-60
2024/01/13 07:03:21;;;;;;;4.13;2.70;;;;;;;-12.89;69.11;100441.44;5031053;28;20072;-64
2024/01/13 07:05:52;;;;;;;7.28;2.92;;;;;;;-12.98;69.24;100440.69;5020285;28;20070;-61
2024/01/13 07:08:22;;;;;;;6.72;3.03;;;;;;;-13.07;69.16;100449.28;5019989;28;20052;-64
2024/01/13 07:10:54;;;;;;;5.68;3.17;;;;;;;-13.47;69.45;100393.31;5010673;28;20186;-62
2024/01/13 07:13:25;;;;;;;3.83;2.70;;;;;;;-13.16;69.43;100453.56;5019908;28;20063;-63
2024/01/13 07:15:55;;;;;;;7.63;2.90;;;;;;;-13.33;69.25;100452.22;5009901;28;20161;-63
2024/01/13 07:18:27;;;;;;;5.50;2.90;;;;;;;-13.45;69.70;100460.41;5020358;28;20477;-61
2024/01/13 07:20:58;;;;;;;4.07;3.30;;;;;;;-13.50;70.30;100453.41;5011143;28;20072;-62
2024/01/13 07:23:28;;;;;;;2.70;2.50;;;;;;;-13.55;70.70;100458.78;5019825;28;20049;-63
2024/01/13 07:25:59;;;;;;;5.60;3.10;;;;;;;-13.69;70.45;100467.72;5007705;28;20058;-63
2024/01/13 07:28:30;;;;;;;5.05;3.53;;;;;;;-13.75;70.42;100464.66;5019550;28;20148;-63
2024/01/13 07:31:00;;;;;;;5.75;3.33;;;;;;;-13.78;70.69;100470.31;5009763;28;20068;-61
2024/01/13 07:33:33;;;;;;;7.80;3.65;;;;;;;-13.86;70.85;100475.47;5019825;28;20094;-62
2024/01/13 07:36:03;;;;;;;8.52;3.38;;;;;;;-14.02;70.66;100484.25;5011198;28;20110;-61
2024/01/13 07:38:34;;;;;;;11.05;4.40;;;;;;;-14.29;70.53;100481.91;5016381;28;20135;-61
2024/01/13 07:41:05;;;;;;;7.35;4.88;;;;;;;-14.55;70.92;100483.09;5011818;28;20072;-63
2024/01/13 07:43:36;;;;;;;8.32;4.97;;;;;;;-14.64;71.55;100492.34;5020101;28;20049;-63
2024/01/13 07:46:07;;;;;;;9.52;4.78;;;;;;;-14.84;71.99;100508.19;5009373;28;20527;-61
2024/01/13 07:48:39;;;;;;;7.75;4.97;;;;;;;-14.99;72.54;100505.19;5019631;28;20143;-62
2024/01/13 07:51:09;;;;;;;10.10;5.40;;;;;;;-15.07;72.69;100502.03;5019683;28;20156;-63
2024/01/13 07:53:53;;;;;;;4.43;3.83;;;;;;;-15.16;72.67;100512.84;5010013;28;20053;-60
2024/01/13 07:56:24;;;;;;;4.97;3.60;;;;;;;-15.21;73.25;100515.81;5019551;28;20052;-61
2024/01/13 07:58:54;;;;;;;13.30;6.47;;;;;;;-15.22;73.47;100513.19;5012139;28;20091;-61
2024/01/13 08:01:24;;;;;;;18.33;10.07;;;;;;;-15.23;73.21;100512.28;5020137;28;20503;-62
2024/01/13 08:04:08;;;;;;;4.70;4.10;;;;;;;-15.25;73.55;100523.84;4987391;28;20079;-62
2024/01/13 08:06:39;;;;;;;19.15;8.32;;;;;;;-15.21;73.84;100518.31;5002245;28;20487;-62
2024/01/13 08:09:09;;;;;;;7.85;4.63;;;;;;;-15.07;74.37;100523.72;5022468;28;20518;-62
2024/01/13 08:11:40;;;;;;;7.88;3.65;;;;;;;-14.86;74.70;100520.56;5010344;28;20053;-62
2024/01/13 08:14:16;;;;;;;9.30;3.67;;;;;;;-14.75;74.16;100525.63;5019073;28;20468;-62
2024/01/13 08:16:47;;;;;;;5.30;2.90;;;;;;;-14.60;74.05;100537.91;5008970;28;20079;-63
2024/01/13 08:19:19;;;;;;;5.30;3.30;;;;;;;-14.43;73.82;100533.44;5020316;28;20110;-61
2024/01/13 08:21:50;;;;;;;3.25;2.95;;;;;;;-14.38;73.16;100533.06;5010325;28;20060;-61
2024/01/13 08:24:20;;;;;;;5.63;2.80;;;;;;;-14.32;73.18;100536.84;5021189;28;20061;-62
2024/01/13 08:26:52;;;;;;;9.38;4.95;;;;;;;-14.38;72.74;100535.56;5010844;28;20049;-66
2024/01/13 08:29:22;;;;;;;11.90;5.45;;;;;;;-14.38;72.52;100548.13;5020342;28;20060;-67
2024/01/13 08:31:52;;;;;;;6.07;3.83;;;;;;;-14.42;72.55;100551.13;5011447;28;20052;-63
2024/01/13 08:34:24;;;;;;;43.53;11.93;;;;;;;-14.47;72.49;100557.38;5019919;28;20056;-63
2024/01/13 08:36:55;;;;;;;22.20;9.88;;;;;;;-14.59;71.83;100556.34;5009382;28;20709;-64
2024/01/13 08:39:25;;;;;;;10.52;6.40;;;;;;;-14.99;71.73;100557.84;5019817;28;20177;-65
2024/01/13 08:41:56;;;;;;;6.60;4.90;;;;;;;-15.34;71.58;100557.22;5009424;28;20053;-63
2024/01/13 08:44:27;;;;;;;14.50;7.07;;;;;;;-15.82;71.93;100495.31;5019213;28;20793;-64
2024/01/13 08:46:58;;;;;;;20.55;10.48;;;;;;;-15.58;71.92;100573.38;5008209;28;20054;-61
2024/01/13 08:49:32;;;;;;;15.82;8.02;;;;;;;-15.70;72.61;100570.66;5017750;28;20516;-65
2024/01/13 08:52:02;;;;;;;15.10;7.63;;;;;;;-15.82;72.86;100570.44;5004165;28;20056;-64
2024/01/13 08:54:33;;;;;;;17.17;10.98;;;;;;;-15.96;72.63;100570.78;5020934;28;20041;-67
2024/01/13 08:57:03;;;;;;;76.35;32.85;;;;;;;-16.22;72.57;100576.75;5015122;28;20136;-67
2024/01/13 08:59:37;;;;;;;47.10;22.10;;;;;;;-16.38;72.95;100566.00;5015424;28;20060;-64
2024/01/13 09:02:08;;;;;;;61.33;28.52;;;;;;;-16.47;73.30;100577.66;5009454;28;20056;-66
2024/01/13 09:04:40;;;;;;;53.72;23.75;;;;;;;-16.67;73.35;100574.16;5015649;28;20053;-65
2024/01/13 09:07:11;;;;;;;41.97;20.88;;;;;;;-16.87;73.72;100578.88;5022485;28;20053;-64
2024/01/13 09:09:41;;;;;;;71.85;25.70;;;;;;;-16.66;75.11;100585.03;5012527;28;20052;-63
2024/01/13 09:12:12;;;;;;;118.93;49.97;;;;;;;-16.84;74.40;100594.19;5022149;28;20491;-66
2024/01/13 09:14:44;;;;;;;119.97;48.78;;;;;;;-16.83;74.71;100586.81;5013132;28;20051;-66
2024/01/13 09:17:15;;;;;;;110.25;42.13;;;;;;;-16.75;75.14;100592.50;5022082;28;20049;-67
2024/01/13 09:19:47;;;;;;;38.33;17.90;;;;;;;-16.60;75.40;100588.97;5012237;28;20088;-65
2024/01/13 09:22:17;;;;;;;30.67;15.77;;;;;;;-16.54;75.19;100607.09;5022251;28;20053;-67
2024/01/13 09:24:49;;;;;;;15.95;8.23;;;;;;;-16.51;75.54;100596.50;5012103;28;20078;-64
2024/01/13 09:27:19;;;;;;;14.00;9.75;;;;;;;-16.56;75.03;100603.56;5023034;28;20115;-66
2024/01/13 09:29:50;;;;;;;9.45;7.40;;;;;;;-16.88;73.99;100602.13;5013456;28;20118;-64
2024/01/13 09:32:20;;;;;;;6.85;5.38;;;;;;;-17.20;73.87;100607.34;5021968;28;20060;-66
2024/01/13 09:34:52;;;;;;;6.70;5.30;;;;;;;-17.43;73.77;100603.47;5012480;28;20076;-65
2024/01/13 09:37:23;;;;;;;9.93;6.50;;;;;;;-18.07;73.75;100539.69;5022340;28;20056;-63
2024/01/13 09:39:53;;;;;;;5.60;4.25;;;;;;;-17.75;74.75;100616.88;5011775;28;20045;-63
2024/01/13 09:42:31;;;;;;;5.22;4.68;;;;;;;-17.84;75.92;100612.75;5022298;28;20080;-62
2024/01/13 09:45:01;;;;;;;7.20;4.85;;;;;;;-17.84;76.71;100607.75;5012562;28;20068;-64
2024/01/13 09:47:32;;;;;;;6.25;5.10;;;;;;;-17.86;76.85;100613.34;5021807;28;20056;-65
2024/01/13 09:50:05;;;;;;;5.78;4.88;;;;;;;-17.96;77.34;100611.53;5012277;28;20075;-64
2024/01/13 09:52:36;;;;;;;6.35;4.97;;;;;;;-18.00;76.88;100604.44;5022098;28;20095;-63
2024/01/13 09:55:09;;;;;;;8.65;5.20;;;;;;;-17.98;77.26;100615.47;5011695;28;20132;-63
2024/01/13 09:57:40;;;;;;;5.05;4.53;;;;;;;-18.06;77.04;100624.66;5011785;28;20203;-63
2024/01/13 10:00:12;;;;;;;6.85;5.35;;;;;;;-18.13;76.68;100626.38;5022146;28;20057;-63
2024/01/13 10:02:44;;;;;;;5.65;4.70;;;;;;;-18.27;76.83;100628.38;5012267;28;20638;-63
2024/01/13 10:05:17;;;;;;;4.43;3.70;;;;;;;-18.38;77.55;100623.88;5022137;28;20573;-62
2024/01/13 10:07:54;;;;;;;7.45;3.60;;;;;;;-18.46;77.76;100637.16;5011071;28;20140;-64
2024/01/13 10:10:26;;;;;;;3.42;3.20;;;;;;;-18.79;77.71;100613.06;5021847;28;20060;-62
2024/01/13 10:12:56;;;;;;;4.25;3.53;;;;;;;-18.71;77.99;100648.69;5010235;28;20114;-65
2024/01/13 10:15:27;;;;;;;4.20;3.80;;;;;;;-18.83;77.93;100655.81;5021318;28;20049;-63
2024/01/13 10:17:57;;;;;;;5.78;3.88;;;;;;;-18.91;78.06;100661.59;5012110;28;20573;-63
2024/01/13 10:20:31;;;;;;;2.80;2.70;;;;;;;-18.98;78.27;100661.66;5021763;28;20057;-63
2024/01/13 10:23:02;;;;;;;4.95;4.45;;;;;;;-19.18;77.94;100652.97;5009113;28;20144;-64
2024/01/13 10:25:32;;;;;;;4.40;4.00;;;;;;;-19.31;77.90;100654.88;5021259;28;20064;-65
2024/01/13 10:28:04;;;;;;;18.00;9.70;;;;;;;-19.42;77.95;100657.81;5011113;28;20051;-65
2024/01/13 10:30:34;;;;;;;33.10;13.35;;;;;;;-19.53;78.08;100658.28;5021397;28;20076;-63
2024/01/13 10:33:05;;;;;;;22.27;9.60;;;;;;;-19.59;78.34;100654.41;5011454;28;20056;-65
2024/01/13 10:35:37;;;;;;;12.48;7.50;;;;;;;-19.67;78.74;100665.16;5021467;28;20051;-66
2024/01/13 10:38:08;;;;;;;15.85;9.23;;;;;;;-19.75;79.16;100651.00;5010563;28;20075;-64
2024/01/13 10:40:38;;;;;;;10.05;5.60;;;;;;;-19.74;79.40;100660.25;5014850;28;20040;-66
2024/01/13 10:43:14;;;;;;;5.80;4.35;;;;;;;-19.78;79.43;100665.59;5020722;28;20497;-63
2024/01/13 10:45:48;;;;;;;3.90;3.60;;;;;;;-19.88;79.38;100667.81;5010955;28;20069;-64
2024/01/13 10:48:27;;;;;;;4.88;4.32;;;;;;;-19.89;79.65;100671.00;5020794;28;20049;-63
2024/01/13 10:51:00;;;;;;;4.07;3.88;;;;;;;-19.96;79.92;100671.97;5011187;28;20050;-65
2024/01/13 10:53:32;;;;;;;3.90;3.60;;;;;;;-20.02;80.09;100668.78;5020719;28;20045;-66
2024/01/13 10:56:04;;;;;;;4.43;4.05;;;;;;;-20.07;80.43;100673.25;5010438;28;20856;-66
2024/01/13 10:58:36;;;;;;;4.28;3.97;;;;;;;-20.77;80.91;100573.56;5020891;28;20138;-64
2024/01/13 11:01:07;;;;;;;4.43;4.13;;;;;;;-20.14;81.03;100678.28;5010494;28;20138;-64
2024/01/13 11:03:47;;;;;;;7.50;5.00;;;;;;;-20.21;81.39;100665.91;5009286;28;20142;-62
2024/01/13 11:06:19;;;;;;;4.03;3.83;;;;;;;-20.16;81.54;100693.72;5020011;28;20065;-63
2024/01/13 11:08:50;;;;;;;4.68;4.20;;;;;;;-20.23;81.36;100687.22;5011341;28;20080;-64
2024/01/13 11:11:26;;;;;;;6.07;5.30;;;;;;;-20.23;81.60;100692.19;5019302;28;20078;-65
2024/01/13 11:14:11;;;;;;;5.20;4.70;;;;;;;-20.22;81.55;100693.94;5009726;28;20103;-65
2024/01/13 11:16:44;;;;;;;5.13;4.65;;;;;;;-20.26;81.41;100686.88;5009160;28;20048;-64
2024/01/13 11:19:14;;;;;;;7.35;4.40;;;;;;;-20.25;81.69;100698.56;5020320;28;20048;-64
2024/01/13 11:21:48;;;;;;;4.30;4.00;;;;;;;-20.24;81.77;100700.34;5009877;28;20055;-66
2024/01/13 11:24:21;;;;;;;6.25;4.25;;;;;;;-20.23;81.91;100719.53;5019109;28;20417;-65
2024/01/13 11:26:52;;;;;;;10.82;4.03;;;;;;;-20.17;82.51;100717.72;5010268;28;20539;-62
2024/01/13 11:29:24;;;;;;;4.30;4.00;;;;;;;-20.07;82.47;100720.50;5020785;28;20049;-64
2024/01/13 11:31:56;;;;;;;4.10;3.83;;;;;;;-20.06;82.42;100717.31;5010672;28;20482;-63
2024/01/13 11:34:29;;;;;;;4.00;3.70;;;;;;;-20.07;82.36;100710.53;5020519;28;20114;-65
2024/01/13 11:37:01;;;;;;;5.28;4.00;;;;;;;-20.14;81.67;100707.22;5009530;28;20389;-65
2024/01/13 11:39:32;;;;;;;4.53;4.15;;;;;;;-20.23;81.51;100722.00;5020300;28;20049;-66